sensor_id;sensor_type;location;lat;lon;timestamp;P1;durP1;ratioP1;P2;durP2;ratioP2
67721;SDS011;58309;45.292;11.820;2022-12-18T00:01:18;13.25;;;9.73;;
67721;SDS011;58309;45.292;11.820;2022-12-18T00:03:49;12.75;;;9.38;;
67721;SDS011;58309;45.292;11.820;2022-12-18T00:06:15;13.50;;;9.30;;
67721;SDS011;58309;45.292;11.820;2022-12-18T00:08:42;12.20;;;8.40;;
67721;SDS011;58309;45.292;11.820;2022-12-18T00:11:16;11.93;;;9.07;;
67721;SDS011;58309;45.292;11.820;2022-12-18T00:13:43;12.80;;;8.95;;
67721;SDS011;58309;45.292;11.820;2022-12-18T00:16:11;11.85;;;9.27;;
67721;SDS011;58309;45.292;11.820;2022-12-18T00:18:38;10.77;;;8.68;;
67721;SDS011;58309;45.292;11.820;2022-12-18T00:21:05;11.95;;;8.98;;
67721;SDS011;58309;45.292;11.820;2022-12-18T00:23:33;9.50;;;8.40;;
67721;SDS011;58309;45.292;11.820;2022-12-18T00:26:05;11.40;;;9.50;;
67721;SDS011;58309;45.292;11.820;2022-12-18T00:28:33;12.20;;;9.35;;
67721;SDS011;58309;45.292;11.820;2022-12-18T00:31:00;11.30;;;9.07;;
67721;SDS011;58309;45.292;11.820;2022-12-18T00:33:27;11.35;;;8.70;;
67721;SDS011;58309;45.292;11.820;2022-12-18T00:35:52;13.75;;;9.93;;
67721;SDS011;58309;45.292;11.820;2022-12-18T00:38:18;12.05;;;8.98;;
67721;SDS011;58309;45.292;11.820;2022-12-18T00:40:43;12.13;;;9.35;;
67721;SDS011;58309;45.292;11.820;2022-12-18T00:43:09;11.25;;;9.00;;
67721;SDS011;58309;45.292;11.820;2022-12-18T00:45:34;11.63;;;9.50;;
67721;SDS011;58309;45.292;11.820;2022-12-18T00:48:00;14.38;;;9.20;;
67721;SDS011;58309;45.292;11.820;2022-12-18T00:50:26;12.75;;;9.27;;
67721;SDS011;58309;45.292;11.820;2022-12-18T00:52:52;14.63;;;9.55;;
67721;SDS011;58309;45.292;11.820;2022-12-18T00:55:17;15.25;;;9.82;;
67721;SDS011;58309;45.292;11.820;2022-12-18T00:57:43;14.18;;;9.75;;
67721;SDS011;58309;45.292;11.820;2022-12-18T01:00:10;11.93;;;9.27;;
67721;SDS011;58309;45.292;11.820;2022-12-18T01:02:38;11.70;;;9.13;;
67721;SDS011;58309;45.292;11.820;2022-12-18T01:05:04;12.10;;;9.35;;
67721;SDS011;58309;45.292;11.820;2022-12-18T01:07:30;13.05;;;10.00;;
67721;SDS011;58309;45.292;11.820;2022-12-18T01:09:55;10.75;;;8.73;;
67721;SDS011;58309;45.292;11.820;2022-12-18T01:12:21;13.07;;;8.98;;
67721;SDS011;58309;45.292;11.820;2022-12-18T01:14:47;13.18;;;9.38;;
67721;SDS011;58309;45.292;11.820;2022-12-18T01:17:12;11.68;;;8.63;;
67721;SDS011;58309;45.292;11.820;2022-12-18T01:19:38;12.52;;;9.23;;
67721;SDS011;58309;45.292;11.820;2022-12-18T01:22:03;13.07;;;9.60;;
67721;SDS011;58309;45.292;11.820;2022-12-18T01:24:29;13.70;;;9.18;;
67721;SDS011;58309;45.292;11.820;2022-12-18T01:26:54;17.10;;;9.63;;
67721;SDS011;58309;45.292;11.820;2022-12-18T01:29:22;11.45;;;8.98;;
67721;SDS011;58309;45.292;11.820;2022-12-18T01:31:47;12.45;;;9.45;;
67721;SDS011;58309;45.292;11.820;2022-12-18T01:34:13;14.15;;;9.75;;
67721;SDS011;58309;45.292;11.820;2022-12-18T01:36:39;15.02;;;9.50;;
67721;SDS011;58309;45.292;11.820;2022-12-18T01:39:10;14.35;;;9.13;;
67721;SDS011;58309;45.292;11.820;2022-12-18T01:41:37;13.00;;;9.05;;
67721;SDS011;58309;45.292;11.820;2022-12-18T01:47:15;12.32;;;8.45;;
67721;SDS011;58309;45.292;11.820;2022-12-18T01:49:59;11.35;;;8.73;;
67721;SDS011;58309;45.292;11.820;2022-12-18T01:52:28;12.82;;;9.18;;
67721;SDS011;58309;45.292;11.820;2022-12-18T01:54:55;11.98;;;8.48;;
67721;SDS011;58309;45.292;11.820;2022-12-18T01:57:22;12.57;;;9.10;;
67721;SDS011;58309;45.292;11.820;2022-12-18T01:59:49;11.45;;;8.68;;
67721;SDS011;58309;45.292;11.820;2022-12-18T02:02:18;11.30;;;9.02;;
67721;SDS011;58309;45.292;11.820;2022-12-18T02:04:44;12.93;;;9.40;;
67721;SDS011;58309;45.292;11.820;2022-12-18T02:09:49;9.55;;;8.25;;
67721;SDS011;58309;45.292;11.820;2022-12-18T02:12:21;12.15;;;8.88;;
67721;SDS011;58309;45.292;11.820;2022-12-18T02:14:58;12.93;;;9.75;;
67721;SDS011;58309;45.292;11.820;2022-12-18T02:17:47;11.57;;;9.15;;
67721;SDS011;58309;45.292;11.820;2022-12-18T02:28:42;12.80;;;9.05;;
67721;SDS011;58309;45.292;11.820;2022-12-18T02:31:13;12.48;;;9.73;;
67721;SDS011;58309;45.292;11.820;2022-12-18T02:33:43;13.40;;;9.05;;
67721;SDS011;58309;45.292;11.820;2022-12-18T02:36:10;11.65;;;8.73;;
67721;SDS011;58309;45.292;11.820;2022-12-18T02:38:38;11.88;;;8.82;;
67721;SDS011;58309;45.292;11.820;2022-12-18T02:41:04;12.55;;;8.60;;
67721;SDS011;58309;45.292;11.820;2022-12-18T02:43:30;11.68;;;9.02;;
67721;SDS011;58309;45.292;11.820;2022-12-18T02:45:57;10.38;;;8.23;;
67721;SDS011;58309;45.292;11.820;2022-12-18T02:48:26;10.48;;;8.23;;
67721;SDS011;58309;45.292;11.820;2022-12-18T02:53:41;11.45;;;7.97;;
67721;SDS011;58309;45.292;11.820;2022-12-18T02:56:15;11.48;;;8.60;;
67721;SDS011;58309;45.292;11.820;2022-12-18T02:59:02;10.55;;;7.93;;
67721;SDS011;58309;45.292;11.820;2022-12-18T03:04:08;12.15;;;8.93;;
67721;SDS011;58309;45.292;11.820;2022-12-18T03:06:40;12.15;;;8.57;;
67721;SDS011;58309;45.292;11.820;2022-12-18T03:09:10;11.68;;;8.60;;
67721;SDS011;58309;45.292;11.820;2022-12-18T03:12:02;12.43;;;8.05;;
67721;SDS011;58309;45.292;11.820;2022-12-18T03:14:48;10.65;;;8.45;;
67721;SDS011;58309;45.292;11.820;2022-12-18T03:17:22;12.73;;;8.13;;
67721;SDS011;58309;45.292;11.820;2022-12-18T03:19:51;12.07;;;8.50;;
67721;SDS011;58309;45.292;11.820;2022-12-18T03:22:21;12.13;;;8.68;;
67721;SDS011;58309;45.292;11.820;2022-12-18T03:24:48;11.20;;;8.35;;
67721;SDS011;58309;45.292;11.820;2022-12-18T03:27:17;14.45;;;8.80;;
67721;SDS011;58309;45.292;11.820;2022-12-18T03:29:56;12.18;;;8.63;;
67721;SDS011;58309;45.292;11.820;2022-12-18T03:35:13;11.70;;;8.43;;
67721;SDS011;58309;45.292;11.820;2022-12-18T03:37:41;9.90;;;7.95;;
67721;SDS011;58309;45.292;11.820;2022-12-18T03:40:07;11.82;;;8.80;;
67721;SDS011;58309;45.292;11.820;2022-12-18T03:47:38;13.50;;;8.65;;
67721;SDS011;58309;45.292;11.820;2022-12-18T03:50:25;13.15;;;8.60;;
67721;SDS011;58309;45.292;11.820;2022-12-18T03:53:11;9.77;;;8.18;;
67721;SDS011;58309;45.292;11.820;2022-12-18T03:56:01;11.98;;;7.90;;
67721;SDS011;58309;45.292;11.820;2022-12-18T03:58:29;11.43;;;8.38;;
67721;SDS011;58309;45.292;11.820;2022-12-18T04:00:58;13.30;;;8.77;;
67721;SDS011;58309;45.292;11.820;2022-12-18T04:03:28;11.20;;;8.15;;
67721;SDS011;58309;45.292;11.820;2022-12-18T04:05:54;10.85;;;8.77;;
67721;SDS011;58309;45.292;11.820;2022-12-18T04:08:21;10.63;;;8.27;;
67721;SDS011;58309;45.292;11.820;2022-12-18T04:10:47;11.93;;;8.45;;
67721;SDS011;58309;45.292;11.820;2022-12-18T04:13:21;11.75;;;8.88;;
67721;SDS011;58309;45.292;11.820;2022-12-18T04:15:47;12.07;;;8.30;;
67721;SDS011;58309;45.292;11.820;2022-12-18T04:18:13;12.13;;;8.52;;
67721;SDS011;58309;45.292;11.820;2022-12-18T04:20:38;10.55;;;8.35;;
67721;SDS011;58309;45.292;11.820;2022-12-18T04:23:04;11.50;;;8.48;;
67721;SDS011;58309;45.292;11.820;2022-12-18T04:25:29;13.43;;;8.30;;
67721;SDS011;58309;45.292;11.820;2022-12-18T04:27:55;11.00;;;8.45;;
67721;SDS011;58309;45.292;11.820;2022-12-18T04:30:20;12.13;;;8.38;;
67721;SDS011;58309;45.292;11.820;2022-12-18T04:32:46;12.70;;;8.35;;
67721;SDS011;58309;45.292;11.820;2022-12-18T04:35:11;11.38;;;8.27;;
67721;SDS011;58309;45.292;11.820;2022-12-18T04:37:37;11.93;;;8.48;;
67721;SDS011;58309;45.292;11.820;2022-12-18T04:40:03;14.82;;;9.05;;
67721;SDS011;58309;45.292;11.820;2022-12-18T04:42:28;12.00;;;8.05;;
67721;SDS011;58309;45.292;11.820;2022-12-18T04:44:54;10.68;;;8.20;;
67721;SDS011;58309;45.292;11.820;2022-12-18T04:47:19;13.52;;;8.70;;
67721;SDS011;58309;45.292;11.820;2022-12-18T04:49:45;11.68;;;9.25;;
67721;SDS011;58309;45.292;11.820;2022-12-18T04:52:11;12.23;;;8.20;;
67721;SDS011;58309;45.292;11.820;2022-12-18T04:54:36;12.88;;;8.93;;
67721;SDS011;58309;45.292;11.820;2022-12-18T04:57:02;13.18;;;8.70;;
67721;SDS011;58309;45.292;11.820;2022-12-18T04:59:27;13.10;;;8.63;;
67721;SDS011;58309;45.292;11.820;2022-12-18T05:01:53;12.90;;;8.55;;
67721;SDS011;58309;45.292;11.820;2022-12-18T05:04:18;13.23;;;8.70;;
67721;SDS011;58309;45.292;11.820;2022-12-18T05:06:44;13.35;;;9.25;;
67721;SDS011;58309;45.292;11.820;2022-12-18T05:09:09;21.92;;;13.20;;
67721;SDS011;58309;45.292;11.820;2022-12-18T05:11:35;42.25;;;18.85;;
67721;SDS011;58309;45.292;11.820;2022-12-18T05:14:01;18.75;;;10.20;;
67721;SDS011;58309;45.292;11.820;2022-12-18T05:16:27;30.30;;;15.75;;
67721;SDS011;58309;45.292;11.820;2022-12-18T05:18:52;20.52;;;12.55;;
67721;SDS011;58309;45.292;11.820;2022-12-18T05:21:18;20.02;;;12.30;;
67721;SDS011;58309;45.292;11.820;2022-12-18T05:23:43;23.42;;;13.20;;
67721;SDS011;58309;45.292;11.820;2022-12-18T05:26:09;15.45;;;11.05;;
67721;SDS011;58309;45.292;11.820;2022-12-18T05:28:40;14.20;;;10.13;;
67721;SDS011;58309;45.292;11.820;2022-12-18T05:31:06;14.55;;;9.23;;
67721;SDS011;58309;45.292;11.820;2022-12-18T05:33:32;15.43;;;10.77;;
67721;SDS011;58309;45.292;11.820;2022-12-18T05:36:00;14.27;;;9.55;;
67721;SDS011;58309;45.292;11.820;2022-12-18T05:38:27;12.32;;;9.10;;
67721;SDS011;58309;45.292;11.820;2022-12-18T05:40:54;12.13;;;8.23;;
67721;SDS011;58309;45.292;11.820;2022-12-18T05:43:20;12.40;;;8.85;;
67721;SDS011;58309;45.292;11.820;2022-12-18T05:45:47;12.23;;;8.48;;
67721;SDS011;58309;45.292;11.820;2022-12-18T05:48:13;12.23;;;8.75;;
67721;SDS011;58309;45.292;11.820;2022-12-18T05:50:39;11.80;;;8.30;;
67721;SDS011;58309;45.292;11.820;2022-12-18T05:53:06;13.77;;;8.60;;
67721;SDS011;58309;45.292;11.820;2022-12-18T05:55:33;14.57;;;8.60;;
67721;SDS011;58309;45.292;11.820;2022-12-18T05:58:03;12.55;;;9.35;;
67721;SDS011;58309;45.292;11.820;2022-12-18T06:00:30;11.45;;;8.50;;
67721;SDS011;58309;45.292;11.820;2022-12-18T06:02:57;14.60;;;9.55;;
67721;SDS011;58309;45.292;11.820;2022-12-18T06:11:21;13.75;;;9.05;;
67721;SDS011;58309;45.292;11.820;2022-12-18T06:13:52;13.75;;;9.35;;
67721;SDS011;58309;45.292;11.820;2022-12-18T06:16:19;14.88;;;9.50;;
67721;SDS011;58309;45.292;11.820;2022-12-18T06:18:44;17.10;;;9.80;;
67721;SDS011;58309;45.292;11.820;2022-12-18T06:21:11;14.60;;;10.45;;
67721;SDS011;58309;45.292;11.820;2022-12-18T06:23:36;13.80;;;9.80;;
67721;SDS011;58309;45.292;11.820;2022-12-18T06:26:06;13.32;;;10.23;;
67721;SDS011;58309;45.292;11.820;2022-12-18T06:28:33;16.88;;;10.07;;
67721;SDS011;58309;45.292;11.820;2022-12-18T06:30:59;16.23;;;10.13;;
67721;SDS011;58309;45.292;11.820;2022-12-18T06:33:27;15.10;;;9.93;;
67721;SDS011;58309;45.292;11.820;2022-12-18T06:35:53;14.77;;;9.55;;
67721;SDS011;58309;45.292;11.820;2022-12-18T06:38:20;12.55;;;9.20;;
67721;SDS011;58309;45.292;11.820;2022-12-18T06:40:45;12.43;;;8.95;;
67721;SDS011;58309;45.292;11.820;2022-12-18T06:43:11;18.10;;;10.25;;
67721;SDS011;58309;45.292;11.820;2022-12-18T06:45:36;15.05;;;10.18;;
67721;SDS011;58309;45.292;11.820;2022-12-18T06:48:02;15.45;;;10.10;;
67721;SDS011;58309;45.292;11.820;2022-12-18T06:50:27;18.25;;;10.20;;
67721;SDS011;58309;45.292;11.820;2022-12-18T06:52:53;17.30;;;10.15;;
67721;SDS011;58309;45.292;11.820;2022-12-18T06:55:19;15.18;;;10.32;;
67721;SDS011;58309;45.292;11.820;2022-12-18T06:57:44;16.63;;;10.90;;
67721;SDS011;58309;45.292;11.820;2022-12-18T07:00:10;14.15;;;10.20;;
67721;SDS011;58309;45.292;11.820;2022-12-18T07:02:36;15.20;;;9.55;;
67721;SDS011;58309;45.292;11.820;2022-12-18T07:05:02;16.40;;;10.25;;
67721;SDS011;58309;45.292;11.820;2022-12-18T07:07:28;17.38;;;9.93;;
67721;SDS011;58309;45.292;11.820;2022-12-18T07:09:53;14.40;;;9.70;;
67721;SDS011;58309;45.292;11.820;2022-12-18T07:12:19;17.45;;;10.85;;
67721;SDS011;58309;45.292;11.820;2022-12-18T07:14:44;17.00;;;10.23;;
67721;SDS011;58309;45.292;11.820;2022-12-18T07:17:10;16.88;;;10.45;;
67721;SDS011;58309;45.292;11.820;2022-12-18T07:19:35;15.73;;;10.70;;
67721;SDS011;58309;45.292;11.820;2022-12-18T07:22:01;15.98;;;10.50;;
67721;SDS011;58309;45.292;11.820;2022-12-18T07:24:26;17.15;;;10.73;;
67721;SDS011;58309;45.292;11.820;2022-12-18T07:26:52;19.25;;;11.20;;
67721;SDS011;58309;45.292;11.820;2022-12-18T07:29:18;17.25;;;10.70;;
67721;SDS011;58309;45.292;11.820;2022-12-18T07:31:44;15.50;;;9.88;;
67721;SDS011;58309;45.292;11.820;2022-12-18T07:34:11;16.73;;;10.77;;
67721;SDS011;58309;45.292;11.820;2022-12-18T07:36:37;16.30;;;10.20;;
67721;SDS011;58309;45.292;11.820;2022-12-18T07:39:03;17.05;;;10.55;;
67721;SDS011;58309;45.292;11.820;2022-12-18T07:41:29;16.30;;;9.63;;
67721;SDS011;58309;45.292;11.820;2022-12-18T07:43:54;13.75;;;9.68;;
67721;SDS011;58309;45.292;11.820;2022-12-18T07:46:20;18.80;;;10.55;;
67721;SDS011;58309;45.292;11.820;2022-12-18T07:48:45;14.48;;;10.45;;
67721;SDS011;58309;45.292;11.820;2022-12-18T07:51:11;15.30;;;9.88;;
67721;SDS011;58309;45.292;11.820;2022-12-18T07:53:37;16.27;;;10.23;;
67721;SDS011;58309;45.292;11.820;2022-12-18T07:56:04;13.70;;;8.98;;
67721;SDS011;58309;45.292;11.820;2022-12-18T07:58:32;16.27;;;9.73;;
67721;SDS011;58309;45.292;11.820;2022-12-18T08:01:05;15.35;;;9.77;;
67721;SDS011;58309;45.292;11.820;2022-12-18T08:03:32;19.88;;;10.75;;
67721;SDS011;58309;45.292;11.820;2022-12-18T08:06:02;14.43;;;9.25;;
67721;SDS011;58309;45.292;11.820;2022-12-18T08:08:29;13.68;;;9.48;;
67721;SDS011;58309;45.292;11.820;2022-12-18T08:10:55;15.48;;;9.13;;
67721;SDS011;58309;45.292;11.820;2022-12-18T08:13:21;14.02;;;9.30;;
67721;SDS011;58309;45.292;11.820;2022-12-18T08:15:55;14.75;;;7.95;;
67721;SDS011;58309;45.292;11.820;2022-12-18T08:18:28;13.00;;;8.15;;
67721;SDS011;58309;45.292;11.820;2022-12-18T08:20:54;13.73;;;8.50;;
67721;SDS011;58309;45.292;11.820;2022-12-18T08:23:20;13.57;;;9.10;;
67721;SDS011;58309;45.292;11.820;2022-12-18T08:25:46;10.68;;;8.32;;
67721;SDS011;58309;45.292;11.820;2022-12-18T08:28:12;12.52;;;8.88;;
67721;SDS011;58309;45.292;11.820;2022-12-18T08:30:37;12.68;;;8.73;;
67721;SDS011;58309;45.292;11.820;2022-12-18T08:33:03;12.93;;;8.95;;
67721;SDS011;58309;45.292;11.820;2022-12-18T08:35:29;11.65;;;8.32;;
67721;SDS011;58309;45.292;11.820;2022-12-18T08:37:54;14.43;;;8.63;;
67721;SDS011;58309;45.292;11.820;2022-12-18T08:40:20;12.40;;;9.20;;
67721;SDS011;58309;45.292;11.820;2022-12-18T08:42:46;11.38;;;9.00;;
67721;SDS011;58309;45.292;11.820;2022-12-18T08:45:33;12.38;;;8.30;;
67721;SDS011;58309;45.292;11.820;2022-12-18T08:47:59;11.82;;;8.70;;
67721;SDS011;58309;45.292;11.820;2022-12-18T08:50:24;11.07;;;7.95;;
67721;SDS011;58309;45.292;11.820;2022-12-18T08:52:50;11.75;;;8.25;;
67721;SDS011;58309;45.292;11.820;2022-12-18T08:55:15;12.82;;;8.90;;
67721;SDS011;58309;45.292;11.820;2022-12-18T08:57:41;10.98;;;8.15;;
67721;SDS011;58309;45.292;11.820;2022-12-18T09:00:07;10.82;;;8.82;;
67721;SDS011;58309;45.292;11.820;2022-12-18T09:02:33;13.52;;;9.63;;
67721;SDS011;58309;45.292;11.820;2022-12-18T09:04:59;10.98;;;7.97;;
67721;SDS011;58309;45.292;11.820;2022-12-18T09:07:24;11.93;;;9.02;;
67721;SDS011;58309;45.292;11.820;2022-12-18T09:09:50;12.02;;;8.50;;
67721;SDS011;58309;45.292;11.820;2022-12-18T09:12:16;11.10;;;8.50;;
67721;SDS011;58309;45.292;11.820;2022-12-18T09:14:41;11.18;;;8.07;;
67721;SDS011;58309;45.292;11.820;2022-12-18T09:17:07;10.20;;;7.97;;
67721;SDS011;58309;45.292;11.820;2022-12-18T09:19:33;12.68;;;8.88;;
67721;SDS011;58309;45.292;11.820;2022-12-18T09:21:58;11.50;;;8.63;;
67721;SDS011;58309;45.292;11.820;2022-12-18T09:24:24;10.82;;;8.48;;
67721;SDS011;58309;45.292;11.820;2022-12-18T09:26:52;11.23;;;8.63;;
67721;SDS011;58309;45.292;11.820;2022-12-18T09:29:20;12.55;;;8.80;;
67721;SDS011;58309;45.292;11.820;2022-12-18T09:31:47;11.68;;;8.80;;
67721;SDS011;58309;45.292;11.820;2022-12-18T09:34:14;11.35;;;8.77;;
67721;SDS011;58309;45.292;11.820;2022-12-18T09:36:40;15.68;;;10.00;;
67721;SDS011;58309;45.292;11.820;2022-12-18T09:39:05;13.82;;;10.32;;
67721;SDS011;58309;45.292;11.820;2022-12-18T09:41:42;17.75;;;11.25;;
67721;SDS011;58309;45.292;11.820;2022-12-18T09:44:19;14.77;;;9.95;;
67721;SDS011;58309;45.292;11.820;2022-12-18T09:49:27;17.25;;;11.38;;
67721;SDS011;58309;45.292;11.820;2022-12-18T09:52:04;13.43;;;9.77;;
67721;SDS011;58309;45.292;11.820;2022-12-18T09:54:35;20.98;;;15.07;;
67721;SDS011;58309;45.292;11.820;2022-12-18T09:57:05;17.58;;;10.57;;
67721;SDS011;58309;45.292;11.820;2022-12-18T09:59:32;13.82;;;10.00;;
67721;SDS011;58309;45.292;11.820;2022-12-18T10:05:07;12.63;;;9.57;;
67721;SDS011;58309;45.292;11.820;2022-12-18T10:10:46;14.30;;;10.40;;
67721;SDS011;58309;45.292;11.820;2022-12-18T10:21:45;14.00;;;9.25;;
67721;SDS011;58309;45.292;11.820;2022-12-18T10:24:36;13.07;;;9.55;;
67721;SDS011;58309;45.292;11.820;2022-12-18T10:27:15;11.75;;;9.25;;
67721;SDS011;58309;45.292;11.820;2022-12-18T10:29:43;11.90;;;9.52;;
67721;SDS011;58309;45.292;11.820;2022-12-18T10:32:21;12.38;;;9.75;;
67721;SDS011;58309;45.292;11.820;2022-12-18T10:34:50;11.70;;;9.13;;
67721;SDS011;58309;45.292;11.820;2022-12-18T10:37:19;12.90;;;8.63;;
67721;SDS011;58309;45.292;11.820;2022-12-18T10:40:04;11.48;;;8.75;;
67721;SDS011;58309;45.292;11.820;2022-12-18T10:42:39;11.02;;;7.95;;
67721;SDS011;58309;45.292;11.820;2022-12-18T10:45:24;10.40;;;8.63;;
67721;SDS011;58309;45.292;11.820;2022-12-18T10:47:49;10.75;;;8.85;;
67721;SDS011;58309;45.292;11.820;2022-12-18T10:50:29;11.65;;;9.15;;
67721;SDS011;58309;45.292;11.820;2022-12-18T10:52:58;13.18;;;9.75;;
67721;SDS011;58309;45.292;11.820;2022-12-18T10:55:44;10.77;;;9.13;;
67721;SDS011;58309;45.292;11.820;2022-12-18T11:06:07;13.75;;;9.95;;
67721;SDS011;58309;45.292;11.820;2022-12-18T11:08:42;13.40;;;9.57;;
67721;SDS011;58309;45.292;11.820;2022-12-18T11:11:19;10.77;;;9.25;;
67721;SDS011;58309;45.292;11.820;2022-12-18T11:14:03;12.57;;;10.00;;
67721;SDS011;58309;45.292;11.820;2022-12-18T11:16:36;12.65;;;9.85;;
67721;SDS011;58309;45.292;11.820;2022-12-18T11:21:49;12.10;;;9.20;;
67721;SDS011;58309;45.292;11.820;2022-12-18T11:24:33;13.63;;;8.98;;
67721;SDS011;58309;45.292;11.820;2022-12-18T11:27:02;12.15;;;9.80;;
67721;SDS011;58309;45.292;11.820;2022-12-18T11:29:36;13.15;;;9.32;;
67721;SDS011;58309;45.292;11.820;2022-12-18T11:35:03;13.65;;;9.93;;
67721;SDS011;58309;45.292;11.820;2022-12-18T11:37:37;14.80;;;9.73;;
67721;SDS011;58309;45.292;11.820;2022-12-18T11:40:14;13.80;;;10.05;;
67721;SDS011;58309;45.292;11.820;2022-12-18T11:42:54;13.63;;;9.55;;
67721;SDS011;58309;45.292;11.820;2022-12-18T11:45:30;13.95;;;10.50;;
67721;SDS011;58309;45.292;11.820;2022-12-18T11:48:34;12.65;;;10.00;;
67721;SDS011;58309;45.292;11.820;2022-12-18T11:51:14;13.73;;;10.35;;
67721;SDS011;58309;45.292;11.820;2022-12-18T11:53:46;14.60;;;10.35;;
67721;SDS011;58309;45.292;11.820;2022-12-18T12:06:38;12.75;;;10.23;;
67721;SDS011;58309;45.292;11.820;2022-12-18T12:11:43;15.07;;;10.10;;
67721;SDS011;58309;45.292;11.820;2022-12-18T12:14:38;15.02;;;10.65;;
67721;SDS011;58309;45.292;11.820;2022-12-18T12:33:26;13.25;;;10.32;;
67721;SDS011;58309;45.292;11.820;2022-12-18T12:38:59;16.50;;;11.18;;
67721;SDS011;58309;45.292;11.820;2022-12-18T12:41:31;16.13;;;11.35;;
67721;SDS011;58309;45.292;11.820;2022-12-18T12:44:37;15.38;;;11.10;;
67721;SDS011;58309;45.292;11.820;2022-12-18T12:47:18;14.32;;;10.38;;
67721;SDS011;58309;45.292;11.820;2022-12-18T12:49:50;13.90;;;10.68;;
67721;SDS011;58309;45.292;11.820;2022-12-18T12:52:20;16.10;;;10.75;;
67721;SDS011;58309;45.292;11.820;2022-12-18T12:54:57;13.30;;;9.48;;
67721;SDS011;58309;45.292;11.820;2022-12-18T12:57:32;15.18;;;9.50;;
67721;SDS011;58309;45.292;11.820;2022-12-18T13:00:21;14.02;;;10.40;;
67721;SDS011;58309;45.292;11.820;2022-12-18T13:02:56;14.65;;;9.88;;
67721;SDS011;58309;45.292;11.820;2022-12-18T13:05:48;13.38;;;9.48;;
67721;SDS011;58309;45.292;11.820;2022-12-18T13:08:22;14.00;;;10.68;;
67721;SDS011;58309;45.292;11.820;2022-12-18T13:10:52;14.38;;;10.65;;
67721;SDS011;58309;45.292;11.820;2022-12-18T13:16:21;13.87;;;9.80;;
67721;SDS011;58309;45.292;11.820;2022-12-18T13:18:52;13.02;;;9.55;;
67721;SDS011;58309;45.292;11.820;2022-12-18T13:21:26;14.80;;;9.80;;
67721;SDS011;58309;45.292;11.820;2022-12-18T13:23:54;12.65;;;9.50;;
67721;SDS011;58309;45.292;11.820;2022-12-18T13:26:28;14.40;;;9.52;;
67721;SDS011;58309;45.292;11.820;2022-12-18T13:28:56;12.88;;;8.75;;
67721;SDS011;58309;45.292;11.820;2022-12-18T13:34:11;14.25;;;9.57;;
67721;SDS011;58309;45.292;11.820;2022-12-18T13:36:46;17.17;;;9.82;;
67721;SDS011;58309;45.292;11.820;2022-12-18T13:41:54;13.40;;;9.27;;
67721;SDS011;58309;45.292;11.820;2022-12-18T13:44:58;14.65;;;9.20;;
67721;SDS011;58309;45.292;11.820;2022-12-18T13:47:31;14.43;;;9.77;;
67721;SDS011;58309;45.292;11.820;2022-12-18T13:50:00;14.27;;;9.70;;
67721;SDS011;58309;45.292;11.820;2022-12-18T13:52:28;15.27;;;9.77;;
67721;SDS011;58309;45.292;11.820;2022-12-18T13:54:59;14.07;;;9.82;;
67721;SDS011;58309;45.292;11.820;2022-12-18T13:57:30;14.70;;;9.85;;
67721;SDS011;58309;45.292;11.820;2022-12-18T13:59:56;16.55;;;10.18;;
67721;SDS011;58309;45.292;11.820;2022-12-18T14:02:25;17.83;;;10.93;;
67721;SDS011;58309;45.292;11.820;2022-12-18T14:04:52;15.17;;;9.80;;
67721;SDS011;58309;45.292;11.820;2022-12-18T14:09:48;15.95;;;10.82;;
67721;SDS011;58309;45.292;11.820;2022-12-18T14:12:33;30.88;;;16.63;;
67721;SDS011;58309;45.292;11.820;2022-12-18T14:20:55;16.15;;;10.80;;
67721;SDS011;58309;45.292;11.820;2022-12-18T14:23:36;17.95;;;10.70;;
67721;SDS011;58309;45.292;11.820;2022-12-18T14:26:26;17.75;;;11.15;;
67721;SDS011;58309;45.292;11.820;2022-12-18T14:28:57;20.20;;;11.95;;
67721;SDS011;58309;45.292;11.820;2022-12-18T14:31:27;14.93;;;10.02;;
67721;SDS011;58309;45.292;11.820;2022-12-18T14:33:54;20.42;;;11.65;;
67721;SDS011;58309;45.292;11.820;2022-12-18T14:36:21;15.82;;;10.57;;
67721;SDS011;58309;45.292;11.820;2022-12-18T14:38:52;16.95;;;10.52;;
67721;SDS011;58309;45.292;11.820;2022-12-18T14:41:20;15.90;;;10.52;;
67721;SDS011;58309;45.292;11.820;2022-12-18T14:43:47;18.65;;;11.23;;
67721;SDS011;58309;45.292;11.820;2022-12-18T14:51:30;25.27;;;12.48;;
67721;SDS011;58309;45.292;11.820;2022-12-18T14:53:58;23.67;;;13.03;;
67721;SDS011;58309;45.292;11.820;2022-12-18T14:56:29;20.17;;;12.57;;
67721;SDS011;58309;45.292;11.820;2022-12-18T15:01:25;23.52;;;13.77;;
67721;SDS011;58309;45.292;11.820;2022-12-18T15:03:54;23.25;;;14.07;;
67721;SDS011;58309;45.292;11.820;2022-12-18T15:06:25;22.33;;;13.52;;
67721;SDS011;58309;45.292;11.820;2022-12-18T15:08:51;25.93;;;14.80;;
67721;SDS011;58309;45.292;11.820;2022-12-18T15:11:27;22.23;;;13.25;;
67721;SDS011;58309;45.292;11.820;2022-12-18T15:16:53;25.88;;;15.18;;
67721;SDS011;58309;45.292;11.820;2022-12-18T15:19:20;26.42;;;15.98;;
67721;SDS011;58309;45.292;11.820;2022-12-18T15:21:47;26.52;;;15.95;;
67721;SDS011;58309;45.292;11.820;2022-12-18T15:24:17;26.13;;;16.02;;
67721;SDS011;58309;45.292;11.820;2022-12-18T15:26:43;25.38;;;15.88;;
67721;SDS011;58309;45.292;11.820;2022-12-18T15:29:19;25.75;;;16.00;;
67721;SDS011;58309;45.292;11.820;2022-12-18T15:32:14;25.35;;;15.52;;
67721;SDS011;58309;45.292;11.820;2022-12-18T15:34:43;28.95;;;16.63;;
67721;SDS011;58309;45.292;11.820;2022-12-18T15:37:08;29.98;;;17.48;;
67721;SDS011;58309;45.292;11.820;2022-12-18T15:39:34;27.48;;;16.67;;
67721;SDS011;58309;45.292;11.820;2022-12-18T15:42:01;32.00;;;19.35;;
67721;SDS011;58309;45.292;11.820;2022-12-18T15:44:59;25.13;;;16.83;;
67721;SDS011;58309;45.292;11.820;2022-12-18T15:47:25;27.05;;;16.70;;
67721;SDS011;58309;45.292;11.820;2022-12-18T15:49:50;30.83;;;16.83;;
67721;SDS011;58309;45.292;11.820;2022-12-18T15:52:16;30.27;;;17.10;;
67721;SDS011;58309;45.292;11.820;2022-12-18T15:54:50;37.13;;;20.58;;
67721;SDS011;58309;45.292;11.820;2022-12-18T15:57:36;34.72;;;19.05;;
67721;SDS011;58309;45.292;11.820;2022-12-18T16:00:01;33.65;;;18.23;;
67721;SDS011;58309;45.292;11.820;2022-12-18T16:02:27;32.30;;;18.40;;
67721;SDS011;58309;45.292;11.820;2022-12-18T16:04:53;43.10;;;24.25;;
67721;SDS011;58309;45.292;11.820;2022-12-18T16:07:21;42.20;;;22.98;;
67721;SDS011;58309;45.292;11.820;2022-12-18T16:09:46;40.45;;;23.25;;
67721;SDS011;58309;45.292;11.820;2022-12-18T16:12:22;40.15;;;21.65;;
67721;SDS011;58309;45.292;11.820;2022-12-18T16:14:50;36.30;;;21.58;;
67721;SDS011;58309;45.292;11.820;2022-12-18T16:17:15;41.75;;;21.55;;
67721;SDS011;58309;45.292;11.820;2022-12-18T16:19:41;36.97;;;20.33;;
67721;SDS011;58309;45.292;11.820;2022-12-18T16:22:08;34.00;;;19.65;;
67721;SDS011;58309;45.292;11.820;2022-12-18T16:24:44;32.47;;;20.30;;
67721;SDS011;58309;45.292;11.820;2022-12-18T16:27:09;30.45;;;18.88;;
67721;SDS011;58309;45.292;11.820;2022-12-18T16:29:35;37.78;;;20.92;;
67721;SDS011;58309;45.292;11.820;2022-12-18T16:32:01;39.55;;;22.05;;
67721;SDS011;58309;45.292;11.820;2022-12-18T16:34:27;35.22;;;20.70;;
67721;SDS011;58309;45.292;11.820;2022-12-18T16:37:02;36.17;;;21.00;;